Main page
METAR-TAF:

METAR-TAF

Airports :

Chlef International Airport

Chlef, Algeria

latitude: 36-13N, longitude: 001-20E, elevation: 143 m

Current weather observation

The report was made 53 minutes ago, at 05:00 UTC
Wind 5 kt from the East/Northeast
Temperature 29°C
Humidity 25%
Pressure 1014 hPa
Visibility 10 km or more
no clouds below 1500 m and no cumulonimbus

METAR: DAOI 130500Z 06005KT CAVOK 29/07 Q1014

Time: 06:53 (05:53 UTC)

Forecast

The report was made 12 hours and 53 minutes ago, at 17:00 UTC
Forecast valid from 12 at 18 UTC to 13 at 18 UTC
Wind 2 kt from variable directions
Visibility 10 km or more
no clouds below 1500 m and no cumulonimbus
Becoming
from 13 at 09 UTC to 13 at 12 UTC
Wind 8 kt from the North

TAF: DAOI 121700Z 1218/1318 VRB02KT CAVOK BECMG 1309/1312 36008KT

Weather observations and forecasts of more than 4000 airports (METAR and TAF reports).

The available stations are represented by yellow and red dots on the map.

Hover mouse over dot to see the name of the station.

Then click to see weather observations and forecasts.

To change the map : click on the green buttons with a black cross to zoom in, on the green button with a dash to zoom out, or on the green arrows for adjacent maps.


METAR-TAF: